Hlavní strana
METAR-TAF:

METAR-TAF

Letiště :

Tahiti, Francouzská Polynésie

zeměpisná šířka: 17-33S, zeměpisná délka: 149-37W, výška: 2 m

Aktuální stav počasí

Zpráva byla vytvořena před 32 minutami, v 16:30 UTC
Jižní vítr 3 kt, proměnlivý mezi jihovýchodním a jižním
Teplota 25°C
Vlhkost vzduchu 83%
Tlak 1011 hPa
Viditelnost 10 km a více
Skoro jasno ve výšce 2300 ft

METAR: NTAA 181630Z 17003KT 130V190 9999 FEW023 25/22 Q1011 NOSIG

Čas: 07:02 (17:02 UTC)

Předpověď počasí

Zpráva byla vytvořena před 6 hodinami a 2 minutami, v 11:00 UTC
Předpověď platná od 18 v 12 UTC do 19 v 18 UTC
vítr z různých směrů 2 kt
Viditelnost 10 km a více
Skoro jasno ve výšce 2000 ft
Oblačno až skoro zataženo ve výšce 6000 ft
Změna
od 18 v 19 UTC do 18 v 21 UTC
Východoseverovýchodní vítr 12 kt
Změna
od 19 v 02 UTC do 19 v 04 UTC
vítr z různých směrů 2 kt

TAF: NTAA 181100Z 1812/1918 VRB02KT 9999 FEW020 BKN060 BECMG 1819/1821 06012KT BECMG 1902/1904 VRB02KT

Stav a předpovědi počasí z více než 4 000 letišť (zprávy METAR a TAF).

Červené a žluté tečky na mapě představují dostupné meteorologické stanice.

Když kurzor umístíte na tečku, zobrazí se název stanice.

Pak kliknutím zobrazíte stav a předpověď počasí.

Chcete-li změnit mapu, kliknutím na zelené tlačítko se znaménkem +mapu přiblížíte, kliknutím na zelené tlačítko se znaménkem – mapu oddálíte a kliknutím na zelené šipky přejdete na sousední mapy.


METAR-TAF: